Time;durP1;ratioP1;P1;durP2;ratioP2;P2;SDS_P1;SDS_P2;PMS_P1;PMS_P2;Temp;Humidity;BMP_temperature;BMP_pressure;BME280_temperature;BME280_humidity;BME280_pressure;Samples;Min_cycle;Max_cycle;Signal;HPM_P1;HPM_P2
2022/02/08 00:02:24;;;;;;;3.15;1.17;;;;;;;;;;5006136;28;20503;-76
2022/02/08 00:05:00;;;;;;;6.30;2.20;;;;;;;;;;5018812;28;20037;-77
2022/02/08 00:07:28;;;;;;;5.03;1.88;;;;;;;;;;5003324;28;20037;-76
2022/02/08 00:09:56;;;;;;;4.00;1.25;;;;;;;;;;5019587;28;20044;-76
2022/02/08 00:12:21;;;;;;;4.10;1.45;;;;;;;;;;5002511;28;20052;-76
2022/02/08 00:14:48;;;;;;;4.25;1.25;;;;;;;;;;5002657;28;20068;-77
2022/02/08 00:17:13;;;;;;;3.97;1.25;;;;;;;;;;5015284;28;20432;-76
2022/02/08 00:19:39;;;;;;;3.42;1.52;;;;;;;;;;5013798;28;20064;-76
2022/02/08 00:22:04;;;;;;;6.00;1.83;;;;;;;;;;5016472;28;20029;-77
2022/02/08 00:24:30;;;;;;;5.00;1.63;;;;;;;;;;5002254;28;20040;-76
2022/02/08 00:26:55;;;;;;;4.05;1.40;;;;;;;;;;5015036;28;20045;-76
2022/02/08 00:29:21;;;;;;;4.45;1.45;;;;;;;;;;4999243;28;20411;-76
2022/02/08 00:31:47;;;;;;;3.85;1.42;;;;;;;;;;4982937;28;20103;-76
2022/02/08 00:34:12;;;;;;;6.38;1.70;;;;;;;;;;4998621;28;20109;-76
2022/02/08 00:36:38;;;;;;;4.78;1.58;;;;;;;;;;4982528;28;20112;-77
2022/02/08 00:39:06;;;;;;;6.38;2.55;;;;;;;;;;5015288;28;20067;-76
2022/02/08 00:41:31;;;;;;;4.30;1.90;;;;;;;;;;4997872;28;20069;-76
2022/02/08 00:44:03;;;;;;;3.75;1.65;;;;;;;;;;4998553;28;20070;-76
2022/02/08 00:46:45;;;;;;;4.10;1.90;;;;;;;;;;5015868;28;20029;-77
2022/02/08 00:49:11;;;;;;;4.95;1.80;;;;;;;;;;5006229;28;20511;-76
2022/02/08 00:51:46;;;;;;;4.15;1.63;;;;;;;;;;5002438;28;20124;-77
2022/02/08 00:54:12;;;;;;;3.60;1.60;;;;;;;;;;5003362;28;20025;-77
2022/02/08 00:56:38;;;;;;;5.05;1.75;;;;;;;;;;5017904;28;20044;-77
2022/02/08 00:59:03;;;;;;;4.97;1.63;;;;;;;;;;5018725;28;20068;-77
2022/02/08 01:01:33;;;;;;;4.30;1.40;;;;;;;;;;5007684;28;20037;-77
2022/02/08 01:03:59;;;;;;;5.25;1.67;;;;;;;;;;5031006;28;20519;-77
2022/02/08 01:06:24;;;;;;;4.28;1.50;;;;;;;;;;5014521;28;20045;-77
2022/02/08 01:08:52;;;;;;;3.90;1.85;;;;;;;;;;5015290;28;20045;-77
2022/02/08 01:11:18;;;;;;;3.92;1.45;;;;;;;;;;5014306;28;20052;-77
2022/02/08 01:13:44;;;;;;;4.82;1.70;;;;;;;;;;4991197;28;20038;-77
2022/02/08 01:16:09;;;;;;;3.97;1.80;;;;;;;;;;5007474;28;20442;-77
2022/02/08 01:18:39;;;;;;;4.05;1.10;;;;;;;;;;5001284;28;20037;-77
2022/02/08 01:21:05;;;;;;;3.03;1.20;;;;;;;;;;5001882;28;20048;-77
2022/02/08 01:23:30;;;;;;;3.50;1.63;;;;;;;;;;5014389;28;20039;-77
2022/02/08 01:25:59;;;;;;;3.58;1.48;;;;;;;;;;4982105;28;20526;-77
2022/02/08 01:31:09;;;;;;;3.70;1.40;;;;;;;;;;5002341;28;20061;-77
2022/02/08 01:38:57;;;;;;;4.82;1.45;;;;;;;;;;5003039;28;20056;-77
2022/02/08 01:51:51;;;;;;;2.40;1.10;;;;;;;;;;5017736;28;20033;-77
2022/02/08 01:54:17;;;;;;;4.75;1.30;;;;;;;;;;5017419;28;20115;-77
2022/02/08 01:56:43;;;;;;;3.50;1.20;;;;;;;;;;5000907;28;20041;-77
2022/02/08 01:59:08;;;;;;;4.63;1.63;;;;;;;;;;5017170;28;20498;-77
2022/02/08 02:01:34;;;;;;;3.10;1.17;;;;;;;;;;5000922;28;20115;-77
2022/02/08 02:03:59;;;;;;;4.28;1.30;;;;;;;;;;5017412;28;20119;-77
2022/02/08 02:06:25;;;;;;;3.40;1.27;;;;;;;;;;4996729;28;20049;-77
2022/02/08 02:08:50;;;;;;;4.25;1.08;;;;;;;;;;5016823;28;20056;-77
2022/02/08 02:11:16;;;;;;;3.35;1.40;;;;;;;;;;5016957;28;20094;-77
2022/02/08 02:13:45;;;;;;;2.38;0.73;;;;;;;;;;5015350;28;20067;-77
2022/02/08 02:16:12;;;;;;;4.00;1.55;;;;;;;;;;5029709;28;20041;-77
2022/02/08 02:18:38;;;;;;;2.95;1.02;;;;;;;;;;4981057;28;20033;-77
2022/02/08 02:21:04;;;;;;;2.85;0.85;;;;;;;;;;5001019;28;20059;-77
2022/02/08 02:23:30;;;;;;;3.05;0.82;;;;;;;;;;4997625;28;20041;-77
2022/02/08 02:25:56;;;;;;;4.05;1.10;;;;;;;;;;4997421;28;20033;-77
2022/02/08 02:28:21;;;;;;;3.72;1.13;;;;;;;;;;4997157;28;20479;-77
2022/02/08 02:30:47;;;;;;;3.70;1.27;;;;;;;;;;5013999;28;20068;-77
2022/02/08 02:33:13;;;;;;;4.22;1.20;;;;;;;;;;5015933;28;20465;-77
2022/02/08 02:35:38;;;;;;;3.55;1.08;;;;;;;;;;5016615;28;20495;-77
2022/02/08 02:38:04;;;;;;;3.67;1.30;;;;;;;;;;5017530;28;20095;-77
2022/02/08 02:40:33;;;;;;;2.85;1.10;;;;;;;;;;5011880;28;20113;-77
2022/02/08 02:42:58;;;;;;;4.07;1.10;;;;;;;;;;5029017;28;20045;-77
2022/02/08 02:45:24;;;;;;;3.08;1.08;;;;;;;;;;5030038;28;20088;-77
2022/02/08 02:47:51;;;;;;;3.70;1.02;;;;;;;;;;5028521;28;20128;-77
2022/02/08 02:50:17;;;;;;;3.20;0.85;;;;;;;;;;5033436;28;20512;-77
2022/02/08 02:52:42;;;;;;;3.00;1.00;;;;;;;;;;5016652;28;20546;-77
2022/02/08 02:55:08;;;;;;;4.22;0.70;;;;;;;;;;5000177;28;20104;-77
2022/02/08 02:57:33;;;;;;;2.42;0.68;;;;;;;;;;5017261;28;20103;-77
2022/02/08 03:00:06;;;;;;;3.38;0.88;;;;;;;;;;5000504;28;20043;-77
2022/02/08 03:05:12;;;;;;;2.95;1.00;;;;;;;;;;5015058;28;20041;-77
2022/02/08 03:18:38;;;;;;;3.03;0.77;;;;;;;;;;5025274;28;20063;-76
2022/02/08 03:21:05;;;;;;;3.55;1.13;;;;;;;;;;5005070;28;20534;-76
2022/02/08 03:23:30;;;;;;;2.33;0.90;;;;;;;;;;4996665;28;20116;-76
2022/02/08 03:25:56;;;;;;;3.50;0.98;;;;;;;;;;5016300;28;20543;-76
2022/02/08 03:28:21;;;;;;;1.50;0.60;;;;;;;;;;5000360;28;20416;-76
2022/02/08 03:30:47;;;;;;;2.60;1.20;;;;;;;;;;5000241;28;20128;-76
2022/02/08 03:33:12;;;;;;;4.25;1.60;;;;;;;;;;5000149;28;20045;-76
2022/02/08 03:35:38;;;;;;;2.97;0.90;;;;;;;;;;5032475;28;20451;-76
2022/02/08 03:38:06;;;;;;;3.03;0.93;;;;;;;;;;5032883;28;20458;-76
2022/02/08 03:43:12;;;;;;;3.05;1.42;;;;;;;;;;5000806;28;20034;-76
2022/02/08 03:45:39;;;;;;;2.80;1.00;;;;;;;;;;4987147;28;20411;-76
2022/02/08 03:48:05;;;;;;;2.78;0.80;;;;;;;;;;5030586;28;20477;-76
2022/02/08 03:50:30;;;;;;;2.63;0.80;;;;;;;;;;5019420;28;20040;-76
2022/02/08 03:52:56;;;;;;;2.00;0.88;;;;;;;;;;5003210;28;20041;-76
2022/02/08 03:55:21;;;;;;;3.33;1.00;;;;;;;;;;5018507;28;20049;-76
2022/02/08 03:57:46;;;;;;;2.53;0.82;;;;;;;;;;5000314;28;20037;-76
2022/02/08 04:00:12;;;;;;;2.63;0.85;;;;;;;;;;4999813;28;20431;-76
2022/02/08 04:07:49;;;;;;;2.22;0.80;;;;;;;;;;5016688;28;20052;-76
2022/02/08 04:10:21;;;;;;;2.53;0.73;;;;;;;;;;4986992;28;20159;-77
2022/02/08 04:15:48;;;;;;;1.73;0.50;;;;;;;;;;5017389;28;20033;-76
2022/02/08 04:32:11;;;;;;;2.17;0.60;;;;;;;;;;5018353;28;20034;-77
2022/02/08 04:43:39;;;;;;;2.22;0.80;;;;;;;;;;5022510;28;20064;-77
2022/02/08 04:45:34;;;;;;;2.35;0.60;;;;;;;;;;5026584;28;20161;-77
2022/02/08 04:50:27;;;;;;;1.98;0.60;;;;;;;;;;5018220;28;20041;-77
2022/02/08 04:52:58;;;;;;;1.77;0.73;;;;;;;;;;5002526;28;20095;-77
2022/02/08 04:58:05;;;;;;;1.90;0.80;;;;;;;;;;5018396;28;20029;-77
2022/02/08 05:00:38;;;;;;;2.57;0.90;;;;;;;;;;4999940;28;20033;-77
2022/02/08 05:44:08;;;;;;;2.25;0.52;;;;;;;;;;5015183;28;20143;-76
2022/02/08 05:46:51;;;;;;;1.98;0.68;;;;;;;;;;5017237;28;20120;-76
2022/02/08 05:49:24;;;;;;;1.45;0.47;;;;;;;;;;5019468;28;20183;-76
2022/02/08 05:54:16;;;;;;;1.08;0.30;;;;;;;;;;5017667;28;20566;-76
2022/02/08 05:56:42;;;;;;;1.20;0.43;;;;;;;;;;4981370;28;20181;-76
2022/02/08 05:59:08;;;;;;;1.80;0.70;;;;;;;;;;5024199;28;20037;-76
2022/02/08 06:01:34;;;;;;;2.22;0.50;;;;;;;;;;5000792;28;20033;-77
2022/02/08 06:04:00;;;;;;;2.42;1.15;;;;;;;;;;5017039;28;20033;-77
2022/02/08 06:06:27;;;;;;;1.77;0.90;;;;;;;;;;5001018;28;20554;-77
2022/02/08 06:08:52;;;;;;;2.00;0.60;;;;;;;;;;5022539;28;20038;-76
2022/02/08 06:11:18;;;;;;;2.15;0.60;;;;;;;;;;5030016;28;20423;-77
2022/02/08 06:13:43;;;;;;;1.48;0.70;;;;;;;;;;4997420;28;20385;-76
2022/02/08 06:16:16;;;;;;;1.75;0.60;;;;;;;;;;5030056;28;20419;-77
2022/02/08 06:18:41;;;;;;;2.17;0.73;;;;;;;;;;4997911;28;20052;-76
2022/02/08 06:21:07;;;;;;;0.82;0.30;;;;;;;;;;5000674;28;20487;-76
2022/02/08 06:23:32;;;;;;;2.42;0.70;;;;;;;;;;5000517;28;20454;-76
2022/02/08 06:25:58;;;;;;;1.48;0.40;;;;;;;;;;5017049;28;20550;-77
2022/02/08 06:28:23;;;;;;;1.55;0.50;;;;;;;;;;5017020;28;20037;-78
2022/02/08 06:30:51;;;;;;;1.77;0.40;;;;;;;;;;4984444;28;20037;-80
2022/02/08 06:33:16;;;;;;;1.88;0.80;;;;;;;;;;4988492;28;20044;-79
2022/02/08 06:35:42;;;;;;;2.58;0.90;;;;;;;;;;4977881;28;20033;-79
2022/02/08 06:38:11;;;;;;;2.50;0.60;;;;;;;;;;5013847;28;20029;-80
2022/02/08 06:40:37;;;;;;;1.30;0.40;;;;;;;;;;5000711;28;20507;-80
2022/02/08 06:43:04;;;;;;;1.75;0.60;;;;;;;;;;5000925;28;20048;-78
2022/02/08 06:45:30;;;;;;;2.22;0.90;;;;;;;;;;4999701;28;20041;-78
2022/02/08 06:47:55;;;;;;;3.53;0.90;;;;;;;;;;5002613;28;20412;-78
2022/02/08 06:50:21;;;;;;;2.72;0.75;;;;;;;;;;4987719;28;20073;-78
2022/02/08 06:52:46;;;;;;;6.80;1.10;;;;;;;;;;5000128;28;20103;-78
2022/02/08 06:55:12;;;;;;;5.85;1.40;;;;;;;;;;4983367;28;20026;-78
2022/02/08 06:57:49;;;;;;;5.30;0.93;;;;;;;;;;4998634;28;20545;-78
2022/02/08 07:00:18;;;;;;;4.68;1.15;;;;;;;;;;5002455;28;20037;-78
2022/02/08 07:02:44;;;;;;;6.40;2.65;;;;;;;;;;5000034;28;20462;-78
2022/02/08 07:05:10;;;;;;;6.22;1.55;;;;;;;;;;4999446;28;20073;-78
2022/02/08 07:07:36;;;;;;;5.78;1.20;;;;;;;;;;5000644;28;20049;-78
2022/02/08 07:10:03;;;;;;;6.10;1.45;;;;;;;;;;5000016;28;20423;-79
2022/02/08 07:12:29;;;;;;;5.47;1.27;;;;;;;;;;5000535;28;20041;-79
2022/02/08 07:14:56;;;;;;;5.05;1.83;;;;;;;;;;5000583;28;20037;-79
2022/02/08 07:17:21;;;;;;;6.60;0.80;;;;;;;;;;5000428;28;20084;-79
2022/02/08 07:19:47;;;;;;;7.68;1.58;;;;;;;;;;5016648;28;20407;-79
2022/02/08 07:22:12;;;;;;;3.78;0.75;;;;;;;;;;4995330;28;20036;-79
2022/02/08 07:24:38;;;;;;;6.70;1.10;;;;;;;;;;5014775;28;20105;-81
2022/02/08 07:27:03;;;;;;;10.77;1.80;;;;;;;;;;4984026;28;20040;-79
2022/02/08 07:29:31;;;;;;;7.45;1.00;;;;;;;;;;5000712;28;20112;-80
2022/02/08 07:32:00;;;;;;;4.10;0.93;;;;;;;;;;4983684;28;20128;-78
2022/02/08 07:34:43;;;;;;;5.38;1.17;;;;;;;;;;5000264;28;20045;-78
2022/02/08 07:37:16;;;;;;;3.92;1.02;;;;;;;;;;5016212;28;20427;-78
2022/02/08 07:39:47;;;;;;;7.65;0.90;;;;;;;;;;5017209;28;20404;-78
2022/02/08 07:42:13;;;;;;;6.95;1.85;;;;;;;;;;5017505;28;20064;-77
2022/02/08 07:44:38;;;;;;;3.55;1.10;;;;;;;;;;4983627;28;20069;-77
2022/02/08 07:47:04;;;;;;;6.88;0.93;;;;;;;;;;4999500;28;20033;-77
2022/02/08 07:49:31;;;;;;;5.78;1.13;;;;;;;;;;5002715;28;20033;-78
2022/02/08 07:51:56;;;;;;;3.95;1.10;;;;;;;;;;5003323;28;20045;-78
2022/02/08 07:54:22;;;;;;;7.13;1.40;;;;;;;;;;5003100;28;20399;-78
2022/02/08 07:56:47;;;;;;;3.85;0.82;;;;;;;;;;5035825;28;20051;-77
2022/02/08 07:59:13;;;;;;;3.22;0.80;;;;;;;;;;5019627;28;20029;-77
2022/02/08 08:01:38;;;;;;;3.60;0.85;;;;;;;;;;5019055;28;20087;-77
2022/02/08 08:04:04;;;;;;;5.30;1.50;;;;;;;;;;5019071;28;20454;-77
2022/02/08 08:06:30;;;;;;;5.53;0.98;;;;;;;;;;5018657;28;20052;-77
2022/02/08 08:08:56;;;;;;;4.95;1.10;;;;;;;;;;5019498;28;20411;-78
2022/02/08 08:11:22;;;;;;;4.40;0.85;;;;;;;;;;5035309;28;20064;-77
2022/02/08 08:16:29;;;;;;;3.00;1.00;;;;;;;;;;5020320;28;20037;-78
2022/02/08 08:21:20;;;;;;;3.65;1.20;;;;;;;;;;5019017;28;20107;-78
2022/02/08 08:23:46;;;;;;;3.65;0.70;;;;;;;;;;5018841;28;20526;-78
2022/02/08 08:26:11;;;;;;;7.03;2.00;;;;;;;;;;5002319;28;20435;-78
2022/02/08 08:28:36;;;;;;;9.52;2.03;;;;;;;;;;5002202;28;20037;-78
2022/02/08 08:31:02;;;;;;;11.70;2.25;;;;;;;;;;5002775;28;20063;-78
2022/02/08 08:33:28;;;;;;;9.80;1.52;;;;;;;;;;5002225;28;20460;-78
2022/02/08 08:35:53;;;;;;;7.68;1.50;;;;;;;;;;5002389;28;20029;-78
2022/02/08 08:38:19;;;;;;;8.30;1.77;;;;;;;;;;5002634;28;20532;-78
2022/02/08 08:41:03;;;;;;;16.25;2.05;;;;;;;;;;5002534;28;20145;-78
2022/02/08 08:51:38;;;;;;;9.82;1.85;;;;;;;;;;5024153;28;20067;-78
2022/02/08 08:54:05;;;;;;;8.18;1.05;;;;;;;;;;5022053;28;20043;-78
2022/02/08 08:56:31;;;;;;;5.70;1.92;;;;;;;;;;4999060;28;20041;-77
2022/02/08 08:58:56;;;;;;;10.73;1.23;;;;;;;;;;5014659;28;20116;-78
2022/02/08 09:01:22;;;;;;;8.45;1.83;;;;;;;;;;5014716;28;20127;-78
2022/02/08 09:03:49;;;;;;;8.70;1.08;;;;;;;;;;5014582;28;20073;-78
2022/02/08 09:06:14;;;;;;;7.20;1.17;;;;;;;;;;4998441;28;20061;-78
2022/02/08 09:08:42;;;;;;;7.93;1.38;;;;;;;;;;4998566;28;20064;-78
2022/02/08 09:11:15;;;;;;;8.23;1.77;;;;;;;;;;4998509;28;20044;-78
2022/02/08 09:13:47;;;;;;;8.95;1.15;;;;;;;;;;4984029;28;20056;-77
2022/02/08 09:19:33;;;;;;;5.22;1.35;;;;;;;;;;5002763;28;20106;-78
2022/02/08 09:30:02;;;;;;;5.68;1.55;;;;;;;;;;5014431;28;20034;-78
2022/02/08 09:32:45;;;;;;;5.05;1.05;;;;;;;;;;5016146;28;20053;-77
2022/02/08 09:35:11;;;;;;;4.70;1.85;;;;;;;;;;5016641;28;20041;-78
2022/02/08 09:37:36;;;;;;;3.15;0.93;;;;;;;;;;4998043;28;20036;-76
2022/02/08 09:40:03;;;;;;;3.97;1.60;;;;;;;;;;5014319;28;20041;-77
2022/02/08 09:42:29;;;;;;;5.25;1.25;;;;;;;;;;5013828;28;20037;-76
2022/02/08 09:44:55;;;;;;;7.32;1.40;;;;;;;;;;5014456;28;20041;-77
2022/02/08 09:47:30;;;;;;;5.90;1.40;;;;;;;;;;5014435;28;20523;-77
2022/02/08 09:50:03;;;;;;;3.45;1.35;;;;;;;;;;5020368;28;20048;-76
2022/02/08 09:52:29;;;;;;;4.10;1.00;;;;;;;;;;5034815;28;20056;-76
2022/02/08 09:54:55;;;;;;;5.28;1.20;;;;;;;;;;4984651;28;20040;-77
2022/02/08 09:57:20;;;;;;;5.47;1.70;;;;;;;;;;5017123;28;20060;-76
2022/02/08 09:59:47;;;;;;;6.78;1.33;;;;;;;;;;5000727;28;20130;-76
2022/02/08 10:02:17;;;;;;;6.15;1.13;;;;;;;;;;5001479;28;20033;-76
2022/02/08 10:04:42;;;;;;;7.30;2.83;;;;;;;;;;5016826;28;20048;-77
2022/02/08 10:07:12;;;;;;;17.20;8.93;;;;;;;;;;5017302;28;20025;-76
2022/02/08 10:09:37;;;;;;;34.03;21.50;;;;;;;;;;5016950;28;20499;-76
2022/02/08 10:12:03;;;;;;;52.20;32.17;;;;;;;;;;5016954;28;20052;-76
2022/02/08 10:18:53;;;;;;;54.72;34.88;;;;;;;;;;5036703;28;20495;-76
2022/02/08 10:22:56;;;;;;;57.25;36.60;;;;;;;;;;5046383;28;20116;-76
2022/02/08 10:25:43;;;;;;;53.28;34.55;;;;;;;;;;5024058;28;20415;-76
2022/02/08 10:38:42;;;;;;;39.50;26.55;;;;;;;;;;5029005;28;20067;-77
2022/02/08 10:41:10;;;;;;;40.20;25.23;;;;;;;;;;5057004;28;20123;-76
2022/02/08 10:43:37;;;;;;;36.38;24.02;;;;;;;;;;5075120;28;20047;-76
2022/02/08 10:46:03;;;;;;;34.00;21.52;;;;;;;;;;5024478;28;20506;-76
2022/02/08 10:48:29;;;;;;;37.03;21.58;;;;;;;;;;5051003;28;20115;-76
2022/02/08 10:50:57;;;;;;;33.88;20.67;;;;;;;;;;5020563;28;20033;-76
2022/02/08 10:53:26;;;;;;;28.45;17.38;;;;;;;;;;5021186;28;20495;-76
2022/02/08 10:56:03;;;;;;;27.67;16.50;;;;;;;;;;5021075;28;20036;-76
2022/02/08 10:58:34;;;;;;;25.92;15.65;;;;;;;;;;5023643;28;20059;-77
2022/02/08 11:03:43;;;;;;;22.00;14.18;;;;;;;;;;5020352;28;20123;-77
2022/02/08 11:25:03;;;;;;;15.63;9.47;;;;;;;;;;5020760;28;20454;-77
2022/02/08 11:27:36;;;;;;;14.55;9.05;;;;;;;;;;5021104;28;20037;-77
2022/02/08 11:30:08;;;;;;;14.25;8.30;;;;;;;;;;5004015;28;20029;-77
2022/02/08 11:47:00;;;;;;;64.03;42.67;;;;;;;;;;5021034;28;20112;-77
2022/02/08 11:54:44;;;;;;;62.72;42.00;;;;;;;;;;5011361;28;20056;-77
2022/02/08 12:07:37;;;;;;;56.03;37.47;;;;;;;;;;5038179;28;20111;-77
2022/02/08 12:48:48;;;;;;;58.53;36.85;;;;;;;;;;5037809;28;20543;-77
2022/02/08 14:01:51;;;;;;;56.88;36.65;;;;;;;;;;5022796;28;20454;-76
2022/02/08 14:07:21;;;;;;;62.67;40.25;;;;;;;;;;5017648;28;20036;-77
2022/02/08 14:15:30;;;;;;;58.40;37.47;;;;;;;;;;5022362;28;20112;-76
2022/02/08 14:25:47;;;;;;;42.72;27.05;;;;;;;;;;5021421;28;20487;-77
2022/02/08 14:36:22;;;;;;;37.25;23.40;;;;;;;;;;5018431;28;20033;-76
2022/02/08 15:10:41;;;;;;;25.35;14.38;;;;;;;;;;5016745;28;20046;-76
2022/02/08 15:13:07;;;;;;;21.10;13.18;;;;;;;;;;5017580;28;20440;-76
2022/02/08 15:17:58;;;;;;;23.40;14.65;;;;;;;;;;5030754;28;20487;-76
2022/02/08 15:20:25;;;;;;;20.45;13.40;;;;;;;;;;5003963;28;20080;-77
2022/02/08 15:22:51;;;;;;;22.10;13.98;;;;;;;;;;5019916;28;20041;-76
2022/02/08 15:25:17;;;;;;;19.67;12.57;;;;;;;;;;5020222;28;20037;-76
2022/02/08 15:27:47;;;;;;;21.45;13.63;;;;;;;;;;5004488;28;20041;-76
2022/02/08 15:30:12;;;;;;;18.88;11.55;;;;;;;;;;5021049;28;20036;-76
2022/02/08 15:32:38;;;;;;;19.38;12.38;;;;;;;;;;5003340;28;20021;-76
2022/02/08 15:35:08;;;;;;;18.35;10.68;;;;;;;;;;5020153;28;20056;-76
2022/02/08 15:37:33;;;;;;;16.05;10.25;;;;;;;;;;5004295;28;20499;-76
2022/02/08 15:39:59;;;;;;;14.80;9.68;;;;;;;;;;5036124;28;20128;-76
2022/02/08 15:42:38;;;;;;;17.42;10.82;;;;;;;;;;5019843;28;20029;-76
2022/02/08 15:45:13;;;;;;;15.30;9.90;;;;;;;;;;5021202;28;20033;-76
2022/02/08 15:47:39;;;;;;;14.38;9.20;;;;;;;;;;5021244;28;20033;-76
2022/02/08 15:50:11;;;;;;;13.27;8.38;;;;;;;;;;5020076;28;20044;-76
2022/02/08 15:58:08;;;;;;;14.02;8.40;;;;;;;;;;5002237;28;20519;-76
2022/02/08 16:08:46;;;;;;;10.40;6.47;;;;;;;;;;5002931;28;20033;-77
2022/02/08 16:16:35;;;;;;;11.18;6.10;;;;;;;;;;5000327;28;20065;-76
2022/02/08 16:19:18;;;;;;;10.13;6.35;;;;;;;;;;5008446;28;20064;-76
2022/02/08 16:58:59;;;;;;;7.22;4.38;;;;;;;;;;5019817;28;20040;-76
2022/02/08 17:01:28;;;;;;;8.70;4.50;;;;;;;;;;5002317;28;20036;-76
2022/02/08 17:03:54;;;;;;;7.35;4.60;;;;;;;;;;5002620;28;20108;-76
2022/02/08 17:06:24;;;;;;;7.03;4.28;;;;;;;;;;5017683;28;20048;-76
2022/02/08 17:08:54;;;;;;;6.95;3.95;;;;;;;;;;5002152;28;20036;-76
2022/02/08 17:11:26;;;;;;;6.75;3.90;;;;;;;;;;5002384;28;20127;-76
2022/02/08 17:19:29;;;;;;;7.75;4.07;;;;;;;;;;5019996;28;20487;-76
2022/02/08 17:46:16;;;;;;;8.18;2.83;;;;;;;;;;5020108;28;20115;-76
2022/02/08 17:48:41;;;;;;;4.65;2.53;;;;;;;;;;5003161;28;20041;-76
2022/02/08 17:51:07;;;;;;;4.40;2.47;;;;;;;;;;5017882;28;20442;-76
2022/02/08 17:53:32;;;;;;;5.18;2.40;;;;;;;;;;5033671;28;20052;-77
2022/02/08 17:55:58;;;;;;;4.97;2.63;;;;;;;;;;5016922;28;20059;-76
2022/02/08 17:58:23;;;;;;;5.20;2.58;;;;;;;;;;5033599;28;20079;-77
2022/02/08 18:00:49;;;;;;;3.58;2.25;;;;;;;;;;5017350;28;20082;-76
2022/02/08 18:03:15;;;;;;;4.78;2.30;;;;;;;;;;5017752;28;20041;-76
2022/02/08 18:05:44;;;;;;;4.15;2.22;;;;;;;;;;5000875;28;20044;-76
2022/02/08 18:08:13;;;;;;;3.58;2.08;;;;;;;;;;5018223;28;20096;-76
2022/02/08 18:10:39;;;;;;;4.35;1.95;;;;;;;;;;5033046;28;20041;-77
2022/02/08 18:13:10;;;;;;;4.57;2.17;;;;;;;;;;5000885;28;20493;-76
2022/02/08 18:15:35;;;;;;;4.38;2.40;;;;;;;;;;4997594;28;20037;-76
2022/02/08 18:18:07;;;;;;;5.45;3.08;;;;;;;;;;5010339;28;20410;-76
2022/02/08 18:20:44;;;;;;;12.10;4.13;;;;;;;;;;4985241;28;20044;-76
2022/02/08 18:25:55;;;;;;;8.23;3.58;;;;;;;;;;5018405;28;20458;-77
2022/02/08 18:55:58;;;;;;;6.32;2.72;;;;;;;;;;5053998;28;20041;-76
2022/02/08 19:04:19;;;;;;;8.35;3.03;;;;;;;;;;5005994;28;20041;-76
2022/02/08 19:19:33;;;;;;;7.43;3.63;;;;;;;;;;5007471;28;20419;-75
2022/02/08 19:21:58;;;;;;;9.80;3.65;;;;;;;;;;5027550;28;20037;-75
2022/02/08 19:24:24;;;;;;;6.32;3.42;;;;;;;;;;5045417;28;20039;-75
2022/02/08 19:26:50;;;;;;;8.38;4.03;;;;;;;;;;5019373;28;20040;-75
2022/02/08 19:29:17;;;;;;;8.63;3.75;;;;;;;;;;5031753;28;20843;-75
2022/02/08 19:31:43;;;;;;;8.40;3.13;;;;;;;;;;5048515;28;20499;-75
2022/02/08 19:34:09;;;;;;;8.95;3.55;;;;;;;;;;5020032;28;20059;-75
2022/02/08 19:36:34;;;;;;;6.07;2.83;;;;;;;;;;5019457;28;20091;-75
2022/02/08 19:39:03;;;;;;;7.88;3.63;;;;;;;;;;5013894;28;20037;-75
2022/02/08 19:41:28;;;;;;;5.95;2.70;;;;;;;;;;5024528;28;20036;-75
2022/02/08 19:43:54;;;;;;;6.07;2.85;;;;;;;;;;5033554;28;20395;-75
2022/02/08 19:46:19;;;;;;;5.80;2.25;;;;;;;;;;5038069;28;20082;-75
2022/02/08 19:48:45;;;;;;;5.45;2.65;;;;;;;;;;5026780;28;20063;-75
2022/02/08 19:51:11;;;;;;;9.38;3.13;;;;;;;;;;5003380;28;20041;-75
2022/02/08 19:53:36;;;;;;;6.03;2.72;;;;;;;;;;5020023;28;20526;-75
2022/02/08 19:58:29;;;;;;;6.72;2.58;;;;;;;;;;5008296;28;20060;-75
2022/02/08 20:03:36;;;;;;;3.72;2.10;;;;;;;;;;5030756;28;20033;-75
2022/02/08 20:06:02;;;;;;;3.85;2.10;;;;;;;;;;5001573;28;20048;-75
2022/02/08 20:08:28;;;;;;;5.90;2.40;;;;;;;;;;5012320;28;20587;-75
2022/02/08 20:10:55;;;;;;;6.78;2.35;;;;;;;;;;5002569;28;20131;-74
2022/02/08 20:13:25;;;;;;;5.07;2.10;;;;;;;;;;5019384;28;20033;-75
2022/02/08 20:15:52;;;;;;;6.50;2.65;;;;;;;;;;5018306;28;20511;-75
2022/02/08 20:18:20;;;;;;;5.55;2.42;;;;;;;;;;5015797;28;20060;-75
2022/02/08 20:20:47;;;;;;;6.72;2.30;;;;;;;;;;5019157;28;20037;-74
2022/02/08 20:23:13;;;;;;;5.60;2.60;;;;;;;;;;5019062;28;20047;-74
2022/02/08 20:25:46;;;;;;;7.90;1.85;;;;;;;;;;5035583;28;20535;-75
2022/02/08 20:28:17;;;;;;;4.80;2.00;;;;;;;;;;5004862;28;20060;-74
2022/02/08 20:30:46;;;;;;;5.45;2.00;;;;;;;;;;5021452;28;20037;-75
2022/02/08 20:33:12;;;;;;;5.65;2.08;;;;;;;;;;5018873;28;20077;-75
2022/02/08 20:35:38;;;;;;;5.07;3.00;;;;;;;;;;5018373;28;20045;-75
2022/02/08 20:38:04;;;;;;;5.20;2.30;;;;;;;;;;5018945;28;20553;-75
2022/02/08 20:40:29;;;;;;;4.78;2.90;;;;;;;;;;5018748;28;20120;-75
2022/02/08 20:42:57;;;;;;;6.38;2.67;;;;;;;;;;5018592;28;20111;-75
2022/02/08 20:45:22;;;;;;;5.38;2.47;;;;;;;;;;5019383;28;20037;-75
2022/02/08 20:47:48;;;;;;;6.50;2.30;;;;;;;;;;5018570;28;20032;-75
2022/02/08 20:50:17;;;;;;;6.10;2.80;;;;;;;;;;4998483;28;20500;-75
2022/02/08 20:52:57;;;;;;;4.25;2.60;;;;;;;;;;4983488;28;20045;-75
2022/02/08 20:55:25;;;;;;;6.25;2.25;;;;;;;;;;5004893;28;20372;-76
2022/02/08 20:58:00;;;;;;;6.20;2.63;;;;;;;;;;5008345;28;20060;-76
2022/02/08 21:00:26;;;;;;;4.18;2.10;;;;;;;;;;5030138;28;20087;-75
2022/02/08 21:03:01;;;;;;;4.45;1.85;;;;;;;;;;4999791;28;20463;-75
2022/02/08 21:07:53;;;;;;;5.22;2.40;;;;;;;;;;4998353;28;20604;-75
2022/02/08 21:10:19;;;;;;;4.10;2.35;;;;;;;;;;4982285;28;20404;-75
2022/02/08 21:13:41;;;;;;;4.40;2.05;;;;;;;;;;4982023;28;20503;-75
2022/02/08 21:15:30;;;;;;;4.60;2.00;;;;;;;;;;4993576;28;20404;-75
2022/02/08 21:17:59;;;;;;;3.72;1.73;;;;;;;;;;5012489;28;20054;-75
2022/02/08 21:20:24;;;;;;;4.10;2.03;;;;;;;;;;5001402;28;20043;-75
2022/02/08 21:22:50;;;;;;;5.68;2.35;;;;;;;;;;5001833;28;20053;-75
2022/02/08 21:25:15;;;;;;;3.47;2.15;;;;;;;;;;5034854;28;20136;-75
2022/02/08 21:27:47;;;;;;;4.47;2.28;;;;;;;;;;5001355;28;20499;-75
2022/02/08 21:33:09;;;;;;;3.25;1.88;;;;;;;;;;5015366;28;20030;-75
2022/02/08 21:49:35;;;;;;;3.63;1.92;;;;;;;;;;5036655;28;20108;-75
2022/02/08 21:54:45;;;;;;;3.97;2.00;;;;;;;;;;5036126;28;20112;-75
2022/02/08 21:57:13;;;;;;;4.28;2.00;;;;;;;;;;5017334;28;20041;-75
2022/02/08 21:59:39;;;;;;;4.40;1.95;;;;;;;;;;5018632;28;20040;-76
2022/02/08 22:02:05;;;;;;;2.63;1.67;;;;;;;;;;5017533;28;20041;-75
2022/02/08 22:04:31;;;;;;;3.85;1.52;;;;;;;;;;4997957;28;20068;-75
2022/02/08 22:06:56;;;;;;;2.67;1.55;;;;;;;;;;5013619;28;20077;-75
2022/02/08 22:09:26;;;;;;;4.03;1.60;;;;;;;;;;4969599;28;20029;-76
2022/02/08 22:31:22;;;;;;;3.75;1.67;;;;;;;;;;4999184;28;20480;-75
2022/02/08 22:33:39;;;;;;;3.08;1.40;;;;;;;;;;5015607;28;20171;-76
2022/02/08 22:36:25;;;;;;;;;;;;;;;;;;5015174;28;20037;-76
2022/02/08 22:38:59;;;;;;;2.67;1.65;;;;;;;;;;5023448;28;19958;-75
2022/02/08 22:41:40;;;;;;;2.60;1.02;;;;;;;;;;5019253;28;20094;-76
2022/02/08 22:44:16;;;;;;;2.78;1.40;;;;;;;;;;5035282;28;20049;-75
2022/02/08 22:46:42;;;;;;;2.67;1.10;;;;;;;;;;4986966;28;20109;-76
2022/02/08 22:49:07;;;;;;;2.42;1.30;;;;;;;;;;5016955;28;20228;-76
2022/02/08 22:51:32;;;;;;;2.70;1.40;;;;;;;;;;4996980;28;20064;-76
2022/02/08 22:53:58;;;;;;;3.00;1.70;;;;;;;;;;5017288;28;20044;-76
2022/02/08 22:56:27;;;;;;;2.47;1.25;;;;;;;;;;5012976;28;20522;-76
2022/02/08 22:58:53;;;;;;;2.28;1.38;;;;;;;;;;5013614;28;20041;-76
2022/02/08 23:01:19;;;;;;;2.47;1.13;;;;;;;;;;5023194;28;20404;-76
2022/02/08 23:03:44;;;;;;;2.45;1.73;;;;;;;;;;5013680;28;20492;-76
2022/02/08 23:06:10;;;;;;;3.35;1.58;;;;;;;;;;5006426;28;20047;-76
2022/02/08 23:08:36;;;;;;;3.13;1.25;;;;;;;;;;5029657;28;20048;-76
2022/02/08 23:11:28;;;;;;;2.00;0.95;;;;;;;;;;5029215;28;20049;-76
2022/02/08 23:13:51;;;;;;;2.42;1.17;;;;;;;;;;5029023;28;20060;-76
2022/02/08 23:16:37;;;;;;;2.60;1.30;;;;;;;;;;5013387;28;20100;-76
2022/02/08 23:38:10;;;;;;;2.80;1.42;;;;;;;;;;5008151;28;20037;-76
2022/02/08 23:40:36;;;;;;;2.53;1.10;;;;;;;;;;5033135;28;20140;-76
2022/02/08 23:43:01;;;;;;;2.53;1.42;;;;;;;;;;5016283;28;20045;-76
2022/02/08 23:45:27;;;;;;;3.67;1.10;;;;;;;;;;5033090;28;20411;-76
2022/02/08 23:48:02;;;;;;;2.58;1.40;;;;;;;;;;5001005;28;20040;-76
2022/02/08 23:50:38;;;;;;;3.63;1.40;;;;;;;;;;5021050;28;20044;-76
2022/02/08 23:53:18;;;;;;;2.90;1.10;;;;;;;;;;5036829;28;20025;-76
2022/02/08 23:56:05;;;;;;;3.17;1.08;;;;;;;;;;5027704;28;20192;-76
2022/02/08 23:58:37;;;;;;;2.47;1.20;;;;;;;;;;5032874;28;20060;-76
